createdAt,value
2018-04-25T00:00:24.307Z,3.43
2018-04-25T00:02:51.820Z,3.23
2018-04-25T00:05:19.359Z,3.90
2018-04-25T00:07:46.928Z,3.77
2018-04-25T00:10:14.447Z,3.20
2018-04-25T00:12:42.014Z,3.60
2018-04-25T00:15:10.263Z,3.30
2018-04-25T00:17:37.779Z,3.33
2018-04-25T00:20:05.340Z,3.60
2018-04-25T00:22:32.841Z,3.83
2018-04-25T00:25:00.364Z,3.17
2018-04-25T00:27:27.884Z,3.10
2018-04-25T00:29:56.130Z,2.90
2018-04-25T00:32:23.648Z,3.47
2018-04-25T00:34:51.197Z,3.00
2018-04-25T00:37:18.754Z,2.73
2018-04-25T00:39:46.295Z,3.47
2018-04-25T00:42:13.804Z,3.10
2018-04-25T00:44:41.286Z,3.03
2018-04-25T00:47:09.561Z,3.43
2018-04-25T00:49:37.818Z,3.33
2018-04-25T00:52:05.307Z,3.47
2018-04-25T00:54:32.822Z,3.20
2018-04-25T00:57:00.297Z,3.20
2018-04-25T00:59:27.793Z,3.60
2018-04-25T01:01:55.332Z,4.17
2018-04-25T01:04:22.851Z,3.50
2018-04-25T01:06:50.344Z,3.43
2018-04-25T01:09:17.893Z,3.60
2018-04-25T01:11:46.183Z,3.23
2018-04-25T01:14:13.726Z,3.53
2018-04-25T01:16:41.995Z,3.80
2018-04-25T01:19:10.280Z,3.50
2018-04-25T01:21:37.834Z,3.37
2018-04-25T01:24:06.812Z,3.00
2018-04-25T01:26:35.075Z,4.03
2018-04-25T01:29:06.135Z,3.33
2018-04-25T01:31:41.061Z,3.33
2018-04-25T01:34:13.873Z,3.37
2018-04-25T01:39:41.240Z,3.47
2018-04-25T01:45:26.417Z,3.47
2018-04-25T01:48:00.708Z,3.20
2018-04-25T01:50:36.587Z,3.60
2018-04-25T01:53:16.072Z,3.10
2018-04-25T01:55:55.451Z,3.47
2018-04-25T01:58:35.485Z,3.53
2018-04-25T02:01:15.650Z,3.07
2018-04-25T02:04:02.689Z,3.67
2018-04-25T02:06:30.194Z,3.90
2018-04-25T02:08:57.684Z,3.40
2018-04-25T02:11:25.166Z,3.20
2018-04-25T02:13:52.700Z,3.90
2018-04-25T02:16:20.190Z,3.40
2018-04-25T02:18:47.716Z,4.10
2018-04-25T02:21:15.216Z,3.20
2018-04-25T02:23:42.837Z,3.50
2018-04-25T02:26:10.338Z,3.33
2018-04-25T02:28:37.841Z,3.67
2018-04-25T02:59:43.347Z,3.40
2018-04-25T03:02:10.823Z,4.40
2018-04-25T03:04:38.331Z,4.40
2018-04-25T03:07:05.824Z,3.57
2018-04-25T03:09:33.372Z,3.80
2018-04-25T03:12:00.919Z,4.13
2018-04-25T03:14:29.180Z,3.70
2018-04-25T03:16:56.708Z,4.20
2018-04-25T03:19:24.219Z,3.63
2018-04-25T03:21:52.476Z,3.33
2018-04-25T03:24:20.745Z,3.83
2018-04-25T03:26:49.018Z,4.27
2018-04-25T03:29:16.596Z,4.17
2018-04-25T03:31:44.863Z,4.07
2018-04-25T03:34:13.142Z,3.60
2018-04-25T03:36:41.421Z,4.13
2018-04-25T03:39:08.910Z,4.60
2018-04-25T03:41:36.436Z,3.57
2018-04-25T03:44:03.951Z,4.00
2018-04-25T03:46:31.447Z,3.90
2018-04-25T03:48:58.942Z,3.77
2018-04-25T03:51:26.465Z,3.97
2018-04-25T03:53:54.006Z,3.60
2018-04-25T03:56:22.250Z,5.33
2018-04-25T03:58:49.829Z,4.20
2018-04-25T04:01:18.091Z,3.60
2018-04-25T04:03:45.670Z,5.07
2018-04-25T04:06:13.951Z,4.20
2018-04-25T04:08:41.548Z,3.97
2018-04-25T04:11:09.056Z,4.07
2018-04-25T04:13:37.335Z,5.67
2018-04-25T04:16:05.620Z,3.97
2018-04-25T04:18:33.102Z,4.27
2018-04-25T04:21:00.582Z,4.90
2018-04-25T04:23:28.086Z,5.47
2018-04-25T04:25:56.350Z,3.80
2018-04-25T04:28:24.632Z,4.57
2018-04-25T04:30:52.904Z,4.27
2018-04-25T04:33:21.176Z,4.20
2018-04-25T04:35:49.455Z,4.53
2018-04-25T04:38:17.016Z,5.20
2018-04-25T04:40:44.498Z,4.73
2018-04-25T04:43:12.044Z,4.53
2018-04-25T04:45:39.498Z,6.10
2018-04-25T04:48:07.040Z,4.97
2018-04-25T04:50:35.306Z,5.37
2018-04-25T04:53:03.588Z,4.30
2018-04-25T04:55:31.863Z,4.77
2018-04-25T04:57:59.362Z,4.93
2018-04-25T05:00:26.985Z,5.50
2018-04-25T05:02:54.489Z,5.77
2018-04-25T05:05:21.965Z,4.50
2018-04-25T05:07:50.242Z,4.47
2018-04-25T05:10:17.722Z,4.67
2018-04-25T05:12:45.207Z,5.30
2018-04-25T05:15:12.722Z,5.17
2018-04-25T05:17:40.980Z,4.90
2018-04-25T05:20:08.490Z,4.80
2018-04-25T05:22:35.970Z,4.40
2018-04-25T05:25:03.517Z,4.47
2018-04-25T05:27:31.021Z,4.63
2018-04-25T05:29:59.415Z,4.90
2018-04-25T05:32:26.920Z,5.03
2018-04-25T05:34:54.432Z,4.87
2018-04-25T05:37:21.944Z,4.40
2018-04-25T05:39:49.454Z,4.40
2018-04-25T05:42:16.986Z,4.80
2018-04-25T05:44:45.308Z,5.13
2018-04-25T05:47:12.801Z,5.73
2018-04-25T05:49:40.273Z,4.47
2018-04-25T05:52:08.530Z,4.70
2018-04-25T05:54:36.033Z,4.80
2018-04-25T05:57:03.564Z,4.70
2018-04-25T05:59:31.828Z,4.80
2018-04-25T06:02:00.082Z,4.87
2018-04-25T06:04:27.681Z,4.90
2018-04-25T06:06:55.166Z,4.50
2018-04-25T06:09:22.689Z,4.60
2018-04-25T06:11:50.228Z,5.50
2018-04-25T06:14:18.538Z,4.10
2018-04-25T06:16:46.022Z,4.30
2018-04-25T06:19:13.630Z,4.27
2018-04-25T06:21:41.906Z,4.80
2018-04-25T06:24:10.279Z,3.97
2018-04-25T06:26:38.616Z,3.83
2018-04-25T06:29:06.070Z,4.50
2018-04-25T06:31:33.554Z,4.57
2018-04-25T06:34:01.830Z,4.30
2018-04-25T06:36:30.100Z,3.97
2018-04-25T06:38:58.341Z,4.17
2018-04-25T06:41:25.957Z,3.90
2018-04-25T06:43:53.446Z,4.20
2018-04-25T06:46:21.069Z,3.70
2018-04-25T06:48:48.576Z,4.53
2018-04-25T06:51:16.078Z,3.70
2018-04-25T06:53:44.344Z,4.07
2018-04-25T06:56:12.721Z,3.73
2018-04-25T06:58:41.007Z,4.60
2018-04-25T07:01:08.499Z,4.03
2018-04-25T07:03:36.118Z,5.13
2018-04-25T07:06:03.693Z,4.20
2018-04-25T07:08:31.233Z,3.83
2018-04-25T07:10:58.782Z,4.50
2018-04-25T07:13:27.219Z,4.23
2018-04-25T07:15:54.701Z,3.80
2018-04-25T07:18:23.019Z,3.70
2018-04-25T07:20:50.574Z,4.10
2018-04-25T07:23:18.076Z,3.77
2018-04-25T07:25:45.598Z,4.10
2018-04-25T07:28:13.082Z,5.47
2018-04-25T07:30:40.591Z,3.87
2018-04-25T07:33:08.074Z,3.63
2018-04-25T07:35:35.569Z,3.87
2018-04-25T07:38:03.047Z,4.17
2018-04-25T07:40:30.609Z,4.00
2018-04-25T07:42:58.116Z,3.93
2018-04-25T07:45:25.723Z,4.30
2018-04-25T07:47:53.214Z,4.30
2018-04-25T07:50:20.713Z,4.60
2018-04-25T07:52:49.084Z,3.63
2018-04-25T07:55:16.577Z,4.33
2018-04-25T07:57:44.109Z,3.47
2018-04-25T08:00:11.570Z,4.27
2018-04-25T08:02:39.068Z,4.17
2018-04-25T08:05:06.562Z,4.70
2018-04-25T08:07:34.139Z,5.80
2018-04-25T08:10:02.528Z,3.70
2018-04-25T08:12:41.834Z,4.40
2018-04-25T08:15:22.015Z,3.93
2018-04-25T08:18:01.574Z,4.57
2018-04-25T08:20:34.314Z,5.67
2018-04-25T08:23:01.836Z,3.60
2018-04-25T08:25:29.346Z,5.20
2018-04-25T08:27:56.846Z,4.30
2018-04-25T08:30:24.353Z,4.57
2018-04-25T08:32:51.858Z,3.60
2018-04-25T08:35:19.361Z,4.60
2018-04-25T08:37:46.856Z,4.53
2018-04-25T08:40:14.356Z,4.33
2018-04-25T08:42:42.624Z,3.70
2018-04-25T08:45:10.950Z,4.20
2018-04-25T08:47:38.410Z,4.90
2018-04-25T08:50:05.890Z,4.50
2018-04-25T08:52:33.389Z,4.00
2018-04-25T08:55:00.876Z,3.80
2018-04-25T08:57:28.370Z,3.80
2018-04-25T08:59:55.955Z,4.60
2018-04-25T09:02:23.456Z,4.97
2018-04-25T09:04:51.053Z,4.60
2018-04-25T09:07:19.442Z,3.73
2018-04-25T09:09:47.695Z,4.50
2018-04-25T09:12:16.012Z,4.17
2018-04-25T09:14:43.511Z,3.77
2018-04-25T09:17:11.094Z,4.17
2018-04-25T09:19:39.355Z,3.83
2018-04-25T09:22:06.849Z,3.57
2018-04-25T09:24:34.355Z,4.00
2018-04-25T09:27:01.959Z,4.27
2018-04-25T09:29:29.479Z,3.80
2018-04-25T09:31:57.394Z,5.27
2018-04-25T09:34:25.337Z,4.30
2018-04-25T09:36:52.851Z,3.80
2018-04-25T09:39:20.330Z,3.87
2018-04-25T09:41:48.610Z,3.47
2018-04-25T09:44:16.903Z,4.43
2018-04-25T09:46:44.442Z,3.80
2018-04-25T09:49:12.682Z,3.70
2018-04-25T09:51:40.293Z,4.63
2018-04-25T09:54:07.952Z,4.17
2018-04-25T09:56:35.511Z,3.73
2018-04-25T09:59:03.000Z,3.43
2018-04-25T10:01:31.308Z,4.73
2018-04-25T10:03:58.998Z,4.03
2018-04-25T10:06:26.439Z,3.60
2018-04-25T10:08:54.710Z,3.80
2018-04-25T10:11:22.983Z,4.80
2018-04-25T10:13:51.237Z,5.07
2018-04-25T10:16:18.851Z,4.03
2018-04-25T10:18:46.388Z,3.63
2018-04-25T10:21:14.629Z,3.50
2018-04-25T10:23:42.145Z,3.60
2018-04-25T10:26:09.675Z,3.07
2018-04-25T10:28:37.875Z,3.43
2018-04-25T10:31:05.411Z,3.47
2018-04-25T10:33:32.903Z,3.03
2018-04-25T10:36:00.520Z,3.60
2018-04-25T10:38:28.021Z,3.67
2018-04-25T10:40:55.531Z,3.33
2018-04-25T10:43:23.016Z,3.80
2018-04-25T10:45:50.647Z,4.07
2018-04-25T10:48:18.203Z,4.23
2018-04-25T10:50:45.685Z,4.17
2018-04-25T10:53:13.181Z,4.50
2018-04-25T10:55:40.666Z,4.17
2018-04-25T10:58:08.943Z,3.40
2018-04-25T11:00:36.441Z,3.50
2018-04-25T11:03:03.955Z,3.30
2018-04-25T11:05:31.443Z,3.70
2018-04-25T11:07:58.979Z,3.63
2018-04-25T11:10:26.588Z,3.67
2018-04-25T11:12:54.087Z,3.67
2018-04-25T11:15:21.584Z,5.23
2018-04-25T11:17:49.098Z,3.50
2018-04-25T11:20:16.730Z,3.60
2018-04-25T11:22:44.212Z,4.33
2018-04-25T11:25:11.711Z,4.40
2018-04-25T11:27:39.208Z,4.70
2018-04-25T11:30:07.466Z,4.80
2018-04-25T11:32:34.971Z,3.30
2018-04-25T11:35:02.488Z,2.87
2018-04-25T11:37:30.906Z,4.20
2018-04-25T11:39:58.398Z,3.43
2018-04-25T11:42:25.878Z,3.37
2018-04-25T11:44:54.140Z,2.83
2018-04-25T11:47:21.744Z,3.33
2018-04-25T11:49:49.242Z,2.87
2018-04-25T11:52:16.743Z,3.00
2018-04-25T11:54:44.298Z,3.60
2018-04-25T11:57:12.680Z,3.27
2018-04-25T11:59:40.306Z,3.37
2018-04-25T12:02:07.783Z,3.40
2018-04-25T12:04:36.058Z,2.83
2018-04-25T12:07:04.343Z,3.70
2018-04-25T12:09:31.852Z,3.63
2018-04-25T12:11:59.330Z,3.40
2018-04-25T12:14:26.913Z,3.47
2018-04-25T12:16:54.462Z,3.50
2018-04-25T12:19:22.730Z,4.63
2018-04-25T12:21:51.034Z,3.50
2018-04-25T12:24:18.580Z,4.00
2018-04-25T12:26:46.053Z,4.17
2018-04-25T12:29:13.581Z,3.37
2018-04-25T12:31:41.881Z,3.20
2018-04-25T12:34:09.372Z,3.33
2018-04-25T12:36:36.875Z,3.10
2018-04-25T12:39:04.522Z,3.37
2018-04-25T12:41:32.860Z,3.07
2018-04-25T12:44:00.295Z,3.67
2018-04-25T12:46:27.920Z,4.37
2018-04-25T12:48:55.498Z,3.87
2018-04-25T12:51:22.982Z,3.67
2018-04-25T12:53:50.591Z,3.93
2018-04-25T12:56:18.078Z,3.17
2018-04-25T12:58:45.589Z,3.67
2018-04-25T13:01:13.836Z,3.67
2018-04-25T13:03:41.337Z,4.20
2018-04-25T13:06:08.815Z,3.60
2018-04-25T13:08:36.302Z,3.30
2018-04-25T13:11:03.819Z,3.57
2018-04-25T13:13:31.302Z,4.40
2018-04-25T13:15:58.801Z,4.60
2018-04-25T13:18:27.066Z,3.90
2018-04-25T13:20:54.550Z,3.50
2018-04-25T13:23:22.048Z,3.90
2018-04-25T13:25:49.542Z,3.23
2018-04-25T13:28:17.836Z,4.17
2018-04-25T13:30:45.341Z,3.40
2018-04-25T13:33:12.943Z,3.20
2018-04-25T13:35:41.202Z,3.73
2018-04-25T13:38:09.483Z,3.10
2018-04-25T13:40:37.741Z,3.50
2018-04-25T13:43:05.332Z,3.60
2018-04-25T13:45:32.810Z,3.53
2018-04-25T13:48:00.341Z,3.23
2018-04-25T13:50:27.830Z,3.67
2018-04-25T13:52:55.462Z,3.57
2018-04-25T13:55:23.050Z,4.30
2018-04-25T13:57:50.675Z,4.03
2018-04-25T14:00:18.172Z,3.27
2018-04-25T14:02:45.701Z,4.63
2018-04-25T14:05:13.248Z,4.07
2018-04-25T14:07:40.744Z,4.30
2018-04-25T14:10:08.300Z,4.10
2018-04-25T14:12:35.806Z,3.67
2018-04-25T14:15:04.182Z,3.53
2018-04-25T14:17:32.451Z,3.97
2018-04-25T14:20:00.730Z,4.00
2018-04-25T14:22:29.335Z,3.80
2018-04-25T14:24:56.870Z,3.83
2018-04-25T14:27:25.242Z,4.33
2018-04-25T14:29:53.500Z,3.57
2018-04-25T14:32:21.792Z,4.00
2018-04-25T14:34:50.063Z,4.20
2018-04-25T14:37:18.325Z,4.00
2018-04-25T14:39:46.627Z,4.43
2018-04-25T14:42:14.166Z,4.60
2018-04-25T14:44:42.422Z,4.17
2018-04-25T14:47:09.917Z,4.20
2018-04-25T14:49:37.440Z,3.67
2018-04-25T14:52:04.926Z,4.43
2018-04-25T14:54:32.540Z,3.73
2018-04-25T14:57:00.019Z,3.90
2018-04-25T14:59:28.281Z,4.60
2018-04-25T15:01:55.779Z,3.50
2018-04-25T15:04:23.275Z,4.00
2018-04-25T15:06:50.758Z,4.63
2018-04-25T15:09:19.010Z,4.90
2018-04-25T15:11:46.502Z,3.50
2018-04-25T15:14:14.745Z,4.00
2018-04-25T15:16:42.266Z,4.43
2018-04-25T15:19:09.755Z,4.63
2018-04-25T15:21:37.376Z,4.30
2018-04-25T15:24:04.903Z,3.50
2018-04-25T15:26:33.153Z,4.40
2018-04-25T15:29:00.736Z,4.37
2018-04-25T15:31:28.306Z,4.03
2018-04-25T15:33:55.803Z,4.50
2018-04-25T15:36:23.327Z,4.77
2018-04-25T15:38:50.869Z,4.80
2018-04-25T15:41:18.367Z,4.10
2018-04-25T15:43:45.942Z,4.03
2018-04-25T15:46:14.233Z,4.97
2018-04-25T15:48:42.489Z,3.80
2018-04-25T15:51:09.979Z,3.70
2018-04-25T15:53:37.500Z,4.43
2018-04-25T15:56:05.022Z,4.90
2018-04-25T15:58:32.556Z,4.17
2018-04-25T16:01:00.050Z,4.20
2018-04-25T16:03:27.541Z,4.80
2018-04-25T16:05:55.098Z,4.77
2018-04-25T16:08:22.543Z,6.13
2018-04-25T16:10:50.031Z,4.73
2018-04-25T16:13:18.637Z,4.50
2018-04-25T16:15:46.162Z,4.63
2018-04-25T16:18:14.776Z,3.83
2018-04-25T16:20:42.408Z,5.13
2018-04-25T16:23:10.683Z,5.40
2018-04-25T16:25:38.967Z,4.17
2018-04-25T16:28:06.460Z,4.63
2018-04-25T16:30:33.959Z,3.70
2018-04-25T16:33:02.216Z,4.10
2018-04-25T16:35:29.813Z,4.43
2018-04-25T16:37:58.066Z,4.47
2018-04-25T16:40:26.349Z,4.90
2018-04-25T16:42:54.605Z,4.10
2018-04-25T16:45:22.116Z,4.83
2018-04-25T16:47:49.636Z,4.83
2018-04-25T16:50:17.122Z,4.70
2018-04-25T16:52:44.619Z,4.20
2018-04-25T16:55:12.198Z,4.13
2018-04-25T16:57:40.502Z,4.30
2018-04-25T17:00:08.004Z,4.10
2018-04-25T17:02:35.524Z,4.60
2018-04-25T17:05:03.035Z,4.57
2018-04-25T17:07:31.321Z,4.83
2018-04-25T17:09:59.588Z,4.93
2018-04-25T17:12:27.829Z,5.47
2018-04-25T17:14:55.386Z,5.23
2018-04-25T17:17:22.842Z,4.73
2018-04-25T17:19:50.343Z,5.40
2018-04-25T17:22:17.918Z,5.40
2018-04-25T17:24:45.450Z,4.80
2018-04-25T17:27:13.830Z,4.60
2018-04-25T17:29:41.337Z,6.20
2018-04-25T17:32:08.948Z,5.50
2018-04-25T17:34:36.494Z,4.37
2018-04-25T17:37:04.752Z,5.47
2018-04-25T17:39:32.300Z,4.37
2018-04-25T17:41:59.805Z,4.93
2018-04-25T17:44:27.567Z,4.30
2018-04-25T17:46:55.206Z,4.27
2018-04-25T17:49:23.454Z,4.47
2018-04-25T17:51:51.039Z,4.50
2018-04-25T17:54:18.538Z,4.60
2018-04-25T17:56:46.276Z,4.20
2018-04-25T17:59:13.824Z,4.10
2018-04-25T18:01:41.328Z,4.23
2018-04-25T18:04:08.923Z,4.03
2018-04-25T18:06:37.204Z,4.43
2018-04-25T18:09:05.189Z,4.20
2018-04-25T18:11:33.235Z,4.63
2018-04-25T18:14:00.751Z,4.70
2018-04-25T18:16:28.225Z,4.90
2018-04-25T18:18:55.827Z,5.27
2018-04-25T18:21:23.402Z,5.77
2018-04-25T18:23:51.249Z,4.90
2018-04-25T18:26:18.895Z,4.97
2018-04-25T18:28:46.416Z,4.83
2018-04-25T18:31:14.025Z,6.20
2018-04-25T18:33:41.517Z,5.27
2018-04-25T18:36:09.022Z,5.70
2018-04-25T18:38:36.523Z,5.37
2018-04-25T18:41:04.039Z,6.60
2018-04-25T18:43:31.811Z,5.20
2018-04-25T18:45:59.402Z,5.43
2018-04-25T18:48:26.916Z,5.63
2018-04-25T18:50:54.429Z,4.60
2018-04-25T18:53:21.939Z,4.90
2018-04-25T18:55:49.480Z,5.53
2018-04-25T18:58:16.970Z,5.10
2018-04-25T19:00:44.458Z,6.00
2018-04-25T19:03:12.500Z,5.13
2018-04-25T19:05:41.301Z,5.50
2018-04-25T19:08:09.228Z,5.40
2018-04-25T19:10:36.872Z,5.63
2018-04-25T19:13:04.417Z,6.27
2018-04-25T19:15:32.679Z,5.80
2018-04-25T19:18:00.246Z,4.70
2018-04-25T19:20:28.503Z,4.80
2018-04-25T19:22:56.092Z,4.87
2018-04-25T19:25:23.594Z,6.77
2018-04-25T19:27:51.092Z,5.30
2018-04-25T19:30:19.368Z,5.17
2018-04-25T19:32:47.644Z,5.20
2018-04-25T19:35:15.909Z,5.40
2018-04-25T19:37:43.810Z,5.50
2018-04-25T19:40:11.367Z,5.53
2018-04-25T19:42:38.891Z,4.93
2018-04-25T19:45:07.175Z,4.67
2018-04-25T19:47:35.436Z,5.37
2018-04-25T19:50:03.726Z,5.70
2018-04-25T19:52:31.967Z,4.90
2018-04-25T19:54:59.560Z,4.47
2018-04-25T19:57:27.068Z,5.10
2018-04-25T19:59:54.575Z,4.73
2018-04-25T20:02:22.079Z,5.33
2018-04-25T20:04:49.692Z,4.47
2018-04-25T20:07:17.198Z,5.90
2018-04-25T20:09:44.786Z,5.27
2018-04-25T20:12:13.072Z,5.23
2018-04-25T20:14:41.354Z,5.60
2018-04-25T20:17:08.860Z,4.80
2018-04-25T20:19:36.360Z,5.40
2018-04-25T20:22:04.626Z,5.10
2018-04-25T20:24:32.901Z,5.63
2018-04-25T20:27:01.206Z,5.10
2018-04-25T20:29:28.743Z,4.80
2018-04-25T20:31:56.290Z,5.17
2018-04-25T20:34:24.556Z,4.93
2018-04-25T20:36:52.873Z,5.13
2018-04-25T20:39:20.362Z,4.77
2018-04-25T20:41:47.865Z,5.90
2018-04-25T20:44:15.356Z,4.80
2018-04-25T20:46:42.842Z,5.07
2018-04-25T20:49:10.345Z,5.10
2018-04-25T20:51:37.948Z,4.73
2018-04-25T20:54:05.489Z,4.90
2018-04-25T20:56:32.979Z,4.83
2018-04-25T20:59:00.484Z,4.63
2018-04-25T21:01:28.137Z,5.00
2018-04-25T21:03:55.796Z,4.60
2018-04-25T21:06:23.290Z,4.93
2018-04-25T21:08:50.783Z,4.93
2018-04-25T21:11:19.155Z,5.30
2018-04-25T21:13:47.412Z,4.87
2018-04-25T21:16:14.924Z,5.37
2018-04-25T21:18:42.410Z,5.50
2018-04-25T21:21:09.912Z,5.47
2018-04-25T21:23:37.390Z,5.07
2018-04-25T21:26:04.886Z,4.70
2018-04-25T21:28:32.376Z,4.50
2018-04-25T21:30:59.854Z,4.23
2018-04-25T21:33:27.360Z,6.47
2018-04-25T21:35:54.861Z,5.53
2018-04-25T21:38:22.358Z,6.10
2018-04-25T21:40:49.960Z,5.60
2018-04-25T21:43:17.516Z,5.93
2018-04-25T21:45:45.011Z,5.77
2018-04-25T21:48:12.494Z,5.70
2018-04-25T21:50:40.087Z,6.20
2018-04-25T21:53:07.644Z,5.67
2018-04-25T21:55:35.122Z,6.97
2018-04-25T21:58:02.703Z,6.70
2018-04-25T22:00:30.206Z,7.33
2018-04-25T22:02:58.465Z,6.30
2018-04-25T22:05:25.942Z,6.27
2018-04-25T22:07:54.324Z,7.40
2018-04-25T22:10:21.876Z,6.73
2018-04-25T22:12:49.358Z,6.67
2018-04-25T22:15:16.888Z,6.70
2018-04-25T22:17:45.149Z,6.27
2018-04-25T22:20:13.419Z,7.70
2018-04-25T22:22:41.666Z,7.23
2018-04-25T22:25:09.267Z,7.70
2018-04-25T22:27:36.851Z,7.40
2018-04-25T22:30:04.335Z,7.57
2018-04-25T22:32:31.843Z,7.40
2018-04-25T22:34:59.404Z,7.73
2018-04-25T22:37:26.926Z,9.57
2018-04-25T22:39:54.407Z,8.20
2018-04-25T22:42:22.791Z,9.47
2018-04-25T22:44:50.341Z,8.87
2018-04-25T22:47:18.585Z,8.70
2018-04-25T22:49:46.204Z,9.03
2018-04-25T22:52:13.726Z,8.50
2018-04-25T22:54:41.989Z,8.30
2018-04-25T22:57:10.242Z,9.20
2018-04-25T22:59:37.738Z,9.07
2018-04-25T23:02:05.233Z,9.00
2018-04-25T23:04:32.744Z,9.10
2018-04-25T23:07:01.124Z,8.60
2018-04-25T23:09:29.383Z,8.80
2018-04-25T23:11:57.642Z,8.30
2018-04-25T23:14:25.233Z,8.83
2018-04-25T23:16:52.781Z,8.43
2018-04-25T23:19:20.273Z,8.80
2018-04-25T23:21:47.767Z,9.13
2018-04-25T23:24:15.273Z,8.60
2018-04-25T23:26:42.758Z,8.40
2018-04-25T23:29:10.271Z,7.47
2018-04-25T23:31:37.753Z,7.47
2018-04-25T23:34:05.260Z,9.70
2018-04-25T23:36:32.753Z,8.97
2018-04-25T23:39:00.250Z,8.40
2018-04-25T23:41:27.851Z,9.10
2018-04-25T23:43:56.105Z,8.50
2018-04-25T23:46:23.611Z,6.73
2018-04-25T23:48:51.090Z,7.10
2018-04-25T23:51:18.706Z,6.90
2018-04-25T23:53:46.262Z,6.70
2018-04-25T23:56:13.763Z,6.87
2018-04-25T23:58:41.257Z,7.30
